Terminal Aerodrome Forecast
Issued by NWS

Home | Current Version | Previous Version | Graphics & Text | Print | Product List | Glossary On
Versions: 1 2 3 4 5 6 7 8 9 10 11 12
000
FTUS45 KGGW 290500
TAFOLF
TAF
KOLF 290537Z 2906/3006 VRB04KT P6SM BKN100
     FM291500 27008KT P6SM VCSH BKN070
     FM292000 30015G25KT P6SM BKN050
     FM300100 32010KT P6SM SCT100=

USA.gov is the U.S. government's official web portal to all federal, state and local government web resources and services.